Time;durP1;ratioP1;P1;durP2;ratioP2;P2;SDS_P1;SDS_P2;PMS_P1;PMS_P2;Temp;Humidity;BMP_temperature;BMP_pressure;BME280_temperature;BME280_humidity;BME280_pressure;Samples;Min_cycle;Max_cycle;Signal;HPM_P1;HPM_P2
2022/03/02 00:01:30;;;;;;;16.75;9.93;;;;;;;;;;5039029;28;20037;-58
2022/03/02 00:03:56;;;;;;;16.15;9.82;;;;;;;;;;5033623;28;20106;-58
2022/03/02 00:06:22;;;;;;;15.80;9.38;;;;;;;;;;5031160;28;20033;-58
2022/03/02 00:08:48;;;;;;;17.20;10.35;;;;;;;;;;5045154;28;20546;-59
2022/03/02 00:11:14;;;;;;;16.00;9.85;;;;;;;;;;5033463;28;20022;-58
2022/03/02 00:13:40;;;;;;;16.70;9.93;;;;;;;;;;5028778;28;20649;-58
2022/03/02 00:16:06;;;;;;;16.58;10.60;;;;;;;;;;5041268;28;20025;-58
2022/03/02 00:18:32;;;;;;;20.63;11.07;;;;;;;;;;5025120;28;20030;-57
2022/03/02 00:20:58;;;;;;;19.13;10.75;;;;;;;;;;5038280;28;20036;-58
2022/03/02 00:23:24;;;;;;;17.27;10.00;;;;;;;;;;5035093;28;20052;-59
2022/03/02 00:25:50;;;;;;;16.55;10.25;;;;;;;;;;5032105;28;20037;-58
2022/03/02 00:28:16;;;;;;;16.50;10.82;;;;;;;;;;5035021;28;20402;-58
2022/03/02 00:30:42;;;;;;;17.13;10.15;;;;;;;;;;5033801;28;20099;-58
2022/03/02 00:33:09;;;;;;;17.63;10.60;;;;;;;;;;5036599;28;20036;-58
2022/03/02 00:35:35;;;;;;;18.00;10.52;;;;;;;;;;5033069;28;20144;-57
2022/03/02 00:38:02;;;;;;;20.10;10.20;;;;;;;;;;5035629;28;20078;-58
2022/03/02 00:40:28;;;;;;;17.30;9.93;;;;;;;;;;5036873;28;20028;-58
2022/03/02 00:42:54;;;;;;;17.40;9.63;;;;;;;;;;5036347;28;20033;-58
2022/03/02 00:45:20;;;;;;;16.02;9.32;;;;;;;;;;5037123;28;20102;-57
2022/03/02 00:47:46;;;;;;;15.40;9.48;;;;;;;;;;5036552;28;20483;-58
2022/03/02 00:50:13;;;;;;;15.82;9.43;;;;;;;;;;5030993;28;20080;-57
2022/03/02 00:52:39;;;;;;;18.98;9.50;;;;;;;;;;5036475;28;20282;-58
2022/03/02 00:55:06;;;;;;;15.60;9.13;;;;;;;;;;5039757;28;20109;-58
2022/03/02 00:57:32;;;;;;;16.52;9.00;;;;;;;;;;5037780;28;20229;-58
2022/03/02 00:59:58;;;;;;;14.75;9.00;;;;;;;;;;5039772;28;20112;-58
2022/03/02 01:02:24;;;;;;;14.20;9.32;;;;;;;;;;5044805;28;20436;-58
2022/03/02 01:04:50;;;;;;;15.73;8.95;;;;;;;;;;5041686;28;20037;-58
2022/03/02 01:07:16;;;;;;;12.25;8.05;;;;;;;;;;5037033;28;20029;-58
2022/03/02 01:09:42;;;;;;;16.45;9.80;;;;;;;;;;5035841;28;20160;-58
2022/03/02 01:12:08;;;;;;;15.65;9.13;;;;;;;;;;5028230;28;20037;-58
2022/03/02 01:14:34;;;;;;;15.35;9.43;;;;;;;;;;5034112;28;20096;-59
2022/03/02 01:17:00;;;;;;;15.75;8.90;;;;;;;;;;5038060;28;20048;-57
2022/03/02 01:19:26;;;;;;;16.20;8.95;;;;;;;;;;5040237;28;20021;-59
2022/03/02 01:21:52;;;;;;;14.32;8.35;;;;;;;;;;5040318;28;20052;-58
2022/03/02 01:24:18;;;;;;;13.45;8.32;;;;;;;;;;5035302;28;20029;-58
2022/03/02 01:26:46;;;;;;;15.18;8.63;;;;;;;;;;5044603;28;20056;-58
2022/03/02 01:29:12;;;;;;;14.63;9.25;;;;;;;;;;5042357;28;20512;-56
2022/03/02 01:31:38;;;;;;;12.55;8.65;;;;;;;;;;5039936;28;20086;-59
2022/03/02 01:34:05;;;;;;;13.10;8.50;;;;;;;;;;5038740;28;20107;-57
2022/03/02 01:36:31;;;;;;;13.13;8.48;;;;;;;;;;5034569;28;20475;-58
2022/03/02 01:38:57;;;;;;;15.60;9.02;;;;;;;;;;5035417;28;20029;-59
2022/03/02 01:41:24;;;;;;;14.10;8.43;;;;;;;;;;5034293;28;20145;-58
2022/03/02 01:43:51;;;;;;;13.95;9.07;;;;;;;;;;5037477;28;20044;-58
2022/03/02 01:46:18;;;;;;;13.30;8.35;;;;;;;;;;5031503;28;20041;-56
2022/03/02 01:48:44;;;;;;;13.02;8.20;;;;;;;;;;5034236;28;20622;-58
2022/03/02 01:51:10;;;;;;;14.07;8.82;;;;;;;;;;5034289;28;20359;-58
2022/03/02 01:53:36;;;;;;;15.25;8.30;;;;;;;;;;5040558;28;20025;-58
2022/03/02 01:56:03;;;;;;;12.85;8.23;;;;;;;;;;5031430;28;20043;-58
2022/03/02 01:58:30;;;;;;;14.40;8.77;;;;;;;;;;5037901;28;20150;-58
2022/03/02 02:00:57;;;;;;;13.75;8.43;;;;;;;;;;5035450;28;20103;-57
2022/03/02 02:03:23;;;;;;;13.63;8.30;;;;;;;;;;5038901;28;20119;-58
2022/03/02 02:05:49;;;;;;;15.48;8.75;;;;;;;;;;5043964;28;20239;-58
2022/03/02 02:08:15;;;;;;;18.98;8.73;;;;;;;;;;5041362;28;20572;-58
2022/03/02 02:10:41;;;;;;;14.02;7.82;;;;;;;;;;5041935;28;20043;-59
2022/03/02 02:13:07;;;;;;;14.68;8.63;;;;;;;;;;5034502;28;20056;-59
2022/03/02 02:15:33;;;;;;;14.15;8.30;;;;;;;;;;5043089;28;20087;-59
2022/03/02 02:17:59;;;;;;;14.80;8.52;;;;;;;;;;5031914;28;20242;-57
2022/03/02 02:20:25;;;;;;;13.35;8.60;;;;;;;;;;5029484;28;20033;-57
2022/03/02 02:22:51;;;;;;;13.77;8.68;;;;;;;;;;5027728;28;20137;-59
2022/03/02 02:25:17;;;;;;;14.15;8.75;;;;;;;;;;5047872;28;20507;-58
2022/03/02 02:27:44;;;;;;;14.77;8.65;;;;;;;;;;5048364;28;20021;-58
2022/03/02 02:30:11;;;;;;;14.27;8.43;;;;;;;;;;5045155;28;20032;-58
2022/03/02 02:32:37;;;;;;;13.38;8.70;;;;;;;;;;5033820;28;20036;-57
2022/03/02 02:35:04;;;;;;;12.48;7.80;;;;;;;;;;5035283;28;20440;-58
2022/03/02 02:37:30;;;;;;;13.27;8.77;;;;;;;;;;5032926;28;20056;-58
2022/03/02 02:39:57;;;;;;;13.48;8.13;;;;;;;;;;5043836;28;20106;-58
2022/03/02 02:42:24;;;;;;;14.40;8.25;;;;;;;;;;5034889;28;20035;-58
2022/03/02 02:44:50;;;;;;;13.57;7.85;;;;;;;;;;5029880;28;20482;-58
2022/03/02 02:47:16;;;;;;;15.15;8.02;;;;;;;;;;5031082;28;20032;-58
2022/03/02 02:49:42;;;;;;;13.55;8.35;;;;;;;;;;5030357;28;20037;-57
2022/03/02 02:52:08;;;;;;;14.00;8.50;;;;;;;;;;5031033;28;20482;-58
2022/03/02 02:54:34;;;;;;;13.32;8.32;;;;;;;;;;5027650;28;20080;-58
2022/03/02 02:57:00;;;;;;;13.30;8.32;;;;;;;;;;5035765;28;20029;-58
2022/03/02 02:59:25;;;;;;;14.93;8.30;;;;;;;;;;5034740;28;20047;-58
2022/03/02 03:01:52;;;;;;;11.82;7.88;;;;;;;;;;5036581;28;20041;-58
2022/03/02 03:04:17;;;;;;;13.60;8.23;;;;;;;;;;5033800;28;20029;-58
2022/03/02 03:06:43;;;;;;;13.07;8.23;;;;;;;;;;5038236;28;20088;-59
2022/03/02 03:09:09;;;;;;;13.90;8.70;;;;;;;;;;5032366;28;20029;-58
2022/03/02 03:11:39;;;;;;;16.15;8.38;;;4.60;99.90;;;;;;5037138;28;20112;-58
2022/03/02 03:14:13;;;;;;;13.30;8.48;;;4.60;99.90;;;;;;5038068;28;20108;-59
2022/03/02 03:16:39;;;;;;;14.20;8.57;;;4.50;99.90;;;;;;5038883;28;20047;-58
2022/03/02 03:19:06;;;;;;;12.45;8.20;;;4.50;99.90;;;;;;5039782;28;20035;-58
2022/03/02 03:21:32;;;;;;;12.40;7.80;;;4.60;99.90;;;;;;5031189;28;20041;-58
2022/03/02 03:23:58;;;;;;;15.85;8.00;;;4.50;99.90;;;;;;5037475;28;20055;-58
2022/03/02 03:26:24;;;;;;;12.75;8.43;;;4.50;99.90;;;;;;5031808;28;20072;-58
2022/03/02 03:28:50;;;;;;;12.35;8.48;;;4.40;99.90;;;;;;5035901;28;20484;-57
2022/03/02 03:31:16;;;;;;;14.63;8.75;;;4.30;99.90;;;;;;5031552;28;20056;-58
2022/03/02 03:33:41;;;;;;;12.43;7.93;;;4.30;99.90;;;;;;5041347;28;20148;-58
2022/03/02 03:36:07;;;;;;;13.85;8.00;;;4.20;99.90;;;;;;5033893;28;20042;-58
2022/03/02 03:38:33;;;;;;;13.50;8.60;;;4.20;99.90;;;;;;5029046;28;20410;-58
2022/03/02 03:40:59;;;;;;;14.20;8.25;;;4.40;99.90;;;;;;5031063;28;20021;-58
2022/03/02 03:43:25;;;;;;;12.65;8.00;;;4.40;99.90;;;;;;5039928;28;20078;-59
2022/03/02 03:45:51;;;;;;;14.82;8.50;;;4.30;99.90;;;;;;5027344;28;20471;-58
2022/03/02 03:48:17;;;;;;;15.13;8.30;;;4.40;99.90;;;;;;5032919;28;20071;-59
2022/03/02 03:50:44;;;;;;;13.80;8.50;;;4.40;99.90;;;;;;5034691;28;20036;-58
2022/03/02 03:53:11;;;;;;;13.23;8.02;;;4.50;99.90;;;;;;5034465;28;20762;-58
2022/03/02 03:55:38;;;;;;;12.05;7.68;;;4.40;99.90;;;;;;5027024;28;20029;-58
2022/03/02 03:58:05;;;;;;;12.00;8.05;;;4.30;99.90;;;;;;5027877;28;20048;-58
2022/03/02 04:00:31;;;;;;;13.50;8.63;;;4.10;99.90;;;;;;5034452;28;20139;-58
2022/03/02 04:02:57;;;;;;;15.95;9.10;;;4.20;99.90;;;;;;5036311;28;20029;-58
2022/03/02 04:05:23;;;;;;;12.85;8.32;;;4.20;99.90;;;;;;5030845;28;20040;-58
2022/03/02 04:07:49;;;;;;;14.55;8.60;;;4.10;99.90;;;;;;5041507;28;20024;-57
2022/03/02 04:10:15;;;;;;;13.38;8.73;;;4.10;99.90;;;;;;5046738;28;20564;-59
2022/03/02 04:12:42;;;;;;;11.98;8.45;;;4.30;99.90;;;;;;5037395;28;20515;-59
2022/03/02 04:15:10;;;;;;;16.20;8.25;;;4.40;99.90;;;;;;5044531;28;20220;-58
2022/03/02 04:17:35;;;;;;;15.60;8.85;;;4.40;99.90;;;;;;5045662;28;20415;-58
2022/03/02 04:20:01;;;;;;;13.43;8.32;;;4.50;99.90;;;;;;5040514;28;20036;-58
2022/03/02 04:22:27;;;;;;;13.82;8.85;;;4.60;99.90;;;;;;5034916;28;20262;-58
2022/03/02 04:24:53;;;;;;;13.23;8.65;;;4.50;99.90;;;;;;5045673;28;20538;-58
2022/03/02 04:27:18;;;;;;;13.73;8.20;;;4.40;99.90;;;;;;5041863;28;20162;-57
2022/03/02 04:29:44;;;;;;;13.27;8.65;;;4.50;99.90;;;;;;5036147;28;20374;-58
2022/03/02 04:32:10;;;;;;;14.00;8.50;;;4.30;99.90;;;;;;5035882;28;20022;-59
2022/03/02 04:34:36;;;;;;;16.13;8.60;;;4.40;99.90;;;;;;5030958;28;20033;-58
2022/03/02 04:37:02;;;;;;;14.13;9.27;;;4.20;99.90;;;;;;5037180;28;20057;-58
2022/03/02 04:39:27;;;;;;;13.95;8.50;;;4.20;99.90;;;;;;5036562;28;20094;-57
2022/03/02 04:41:53;;;;;;;13.73;8.75;;;3.90;99.90;;;;;;5037454;28;20040;-57
2022/03/02 04:44:19;;;;;;;15.20;9.10;;;3.80;99.90;;;;;;5038463;28;20103;-56
2022/03/02 04:46:48;;;;;;;13.48;8.52;;;3.70;99.90;;;;;;5039701;28;20051;-58
2022/03/02 04:49:17;;;;;;;17.83;9.90;;;3.50;99.90;;;;;;5035886;28;20574;-58
2022/03/02 04:51:43;;;;;;;15.77;9.77;;;3.50;99.90;;;;;;5034276;28;20681;-58
2022/03/02 04:55:05;;;;;;;16.00;9.32;;;3.60;99.90;;;;;;5038238;28;20082;-58
2022/03/02 04:56:54;;;;;;;14.75;8.88;;;3.60;99.90;;;;;;5041876;28;20024;-58
2022/03/02 04:59:20;;;;;;;14.98;9.50;;;3.60;99.90;;;;;;5041011;28;20048;-58
2022/03/02 05:01:45;;;;;;;13.82;9.68;;;3.50;99.90;;;;;;5038377;28;20066;-58
2022/03/02 05:04:11;;;;;;;17.92;9.60;;;3.50;99.90;;;;;;5035435;28;20260;-56
2022/03/02 05:06:36;;;;;;;16.30;10.32;;;3.30;99.90;;;;;;5038526;28;20091;-58
2022/03/02 05:09:02;;;;;;;16.50;9.40;;;3.30;99.90;;;;;;5042788;28;20029;-59
2022/03/02 05:11:27;;;;;;;16.25;9.52;;;3.30;99.90;;;;;;5036996;28;20121;-58
2022/03/02 05:13:53;;;;;;;15.85;9.57;;;3.20;99.90;;;;;;5037111;28;20028;-58
2022/03/02 05:16:20;;;;;;;15.93;9.27;;;3.20;99.90;;;;;;5035731;28;20573;-57
2022/03/02 05:18:46;;;;;;;14.40;9.27;;;3.50;99.90;;;;;;5038875;28;20024;-58
2022/03/02 05:21:12;;;;;;;16.10;9.57;;;3.40;99.90;;;;;;5036442;28;20429;-58
2022/03/02 05:23:38;;;;;;;16.70;9.95;;;3.30;99.90;;;;;;5041475;28;20033;-58
2022/03/02 05:26:03;;;;;;;16.33;9.45;;;3.30;99.90;;;;;;5043621;28;20051;-59
2022/03/02 05:28:29;;;;;;;18.13;9.57;;;3.40;99.90;;;;;;5036930;28;20076;-59
2022/03/02 05:30:54;;;;;;;18.40;9.70;;;3.60;99.90;;;;;;5041447;28;20032;-59
2022/03/02 05:33:20;;;;;;;16.55;9.32;;;3.70;99.90;;;;;;5034178;28;20040;-59
2022/03/02 05:35:46;;;;;;;18.48;10.32;;;3.70;99.90;;;;;;5040948;28;20037;-59
2022/03/02 05:38:11;;;;;;;17.13;9.82;;;3.40;99.90;;;;;;5032538;28;20021;-58
2022/03/02 05:40:37;;;;;;;17.83;10.30;;;3.40;99.90;;;;;;5030992;28;20037;-58
2022/03/02 05:43:02;;;;;;;18.27;9.93;;;3.30;99.90;;;;;;5036716;28;20032;-57
2022/03/02 05:45:28;;;;;;;17.67;9.70;;;3.60;99.90;;;;;;5033033;28;20469;-57
2022/03/02 05:47:54;;;;;;;18.00;9.85;;;3.70;99.90;;;;;;5036147;28;20564;-57
2022/03/02 05:50:19;;;;;;;14.82;9.45;;;3.70;99.90;;;;;;5033006;28;20495;-57
2022/03/02 05:52:45;;;;;;;19.10;10.45;;;3.60;99.90;;;;;;5034709;28;20034;-55
2022/03/02 05:55:10;;;;;;;19.35;10.93;;;3.80;99.90;;;;;;5035156;28;20029;-56
2022/03/02 05:57:36;;;;;;;15.93;10.32;;;3.80;99.90;;;;;;5033787;28;20560;-57
2022/03/02 06:00:04;;;;;;;16.52;10.65;;;3.80;99.90;;;;;;5040305;28;20524;-56
2022/03/02 06:02:30;;;;;;;18.75;10.57;;;3.50;99.90;;;;;;5030764;28;20060;-57
2022/03/02 06:04:56;;;;;;;18.25;10.95;;;3.30;99.90;;;;;;5030887;28;20083;-57
2022/03/02 06:07:21;;;;;;;16.45;10.63;;;3.20;99.90;;;;;;5041211;28;20254;-57
2022/03/02 06:09:49;;;;;;;15.88;10.88;;;3.10;99.90;;;;;;5039535;28;20025;-56
2022/03/02 06:12:15;;;;;;;16.73;10.50;;;3.00;99.90;;;;;;5043115;28;21038;-55
2022/03/02 06:14:41;;;;;;;18.35;11.65;;;2.90;99.90;;;;;;5033702;28;20048;-57
2022/03/02 06:17:09;;;;;;;17.30;10.55;;;2.80;99.90;;;;;;5034762;28;20033;-57
2022/03/02 06:19:35;;;;;;;18.85;11.13;;;;;;;;;;5032422;28;20048;-57
2022/03/02 06:22:03;;;;;;;19.58;10.80;;;2.70;99.90;;;;;;5039891;28;20221;-57
2022/03/02 06:24:30;;;;;;;21.38;10.77;;;2.70;99.90;;;;;;5029699;28;20029;-57
2022/03/02 06:26:56;;;;;;;20.33;10.68;;;2.70;99.90;;;;;;5034699;28;20025;-56
2022/03/02 06:29:22;;;;;;;18.02;10.55;;;2.60;99.90;;;;;;5033456;28;20029;-56
2022/03/02 06:31:47;;;;;;;18.77;11.48;;;2.70;99.90;;;;;;5031889;28;20381;-56
2022/03/02 06:34:13;;;;;;;17.77;10.68;;;2.60;99.90;;;;;;5033533;28;20543;-57
2022/03/02 06:36:38;;;;;;;19.60;11.48;;;2.50;99.90;;;;;;5039547;28;20030;-57
2022/03/02 06:39:05;;;;;;;21.20;11.15;;;2.50;99.90;;;;;;5038154;28;20226;-56
2022/03/02 06:41:45;;;;;;;27.83;11.88;;;2.60;99.90;;;;;;5037160;28;20512;-56
2022/03/02 06:44:42;;;;;;;20.38;10.80;;;2.60;99.90;;;;;;5033033;28;20035;-57
2022/03/02 06:47:10;;;;;;;18.05;10.18;;;2.60;99.90;;;;;;5031407;28;20049;-56
2022/03/02 06:50:04;;;;;;;21.90;12.00;;;2.60;99.90;;;;;;5035242;28;20170;-56
2022/03/02 06:52:38;;;;;;;29.75;12.45;;;2.50;99.90;;;;;;5026369;28;20048;-56
2022/03/02 06:55:07;;;;;;;36.58;17.17;;;2.50;99.90;;;;;;5035268;28;20030;-56
2022/03/02 06:57:33;;;;;;;25.02;12.95;;;2.60;99.90;;;;;;5032457;28;20041;-57
2022/03/02 07:00:03;;;;;;;27.40;12.10;;;2.60;99.90;;;;;;5037865;28;20849;-57
2022/03/02 07:02:45;;;;;;;20.35;11.02;;;2.60;99.90;;;;;;5035747;28;20037;-57
2022/03/02 07:05:10;;;;;;;20.10;11.55;;;2.70;99.90;;;;;;5033072;28;20129;-56
2022/03/02 07:07:37;;;;;;;19.83;11.02;;;2.80;99.90;;;;;;5037775;28;20540;-55
2022/03/02 07:10:05;;;;;;;16.63;10.70;;;3.00;99.90;;;;;;5034742;28;20120;-56
2022/03/02 07:12:30;;;;;;;17.92;10.55;;;3.20;99.90;;;;;;5030634;28;20045;-57
2022/03/02 07:14:57;;;;;;;17.60;10.48;;;3.40;99.90;;;;;;5029738;28;20035;-56
2022/03/02 07:17:24;;;;;;;19.45;11.10;;;3.50;99.90;;;;;;5032517;28;20059;-56
2022/03/02 07:19:50;;;;;;;16.10;10.30;;;3.60;99.90;;;;;;5023857;28;20036;-57
2022/03/02 07:22:19;;;;;;;20.88;11.25;;;3.80;99.90;;;;;;5028712;28;20025;-57
2022/03/02 07:24:57;;;;;;;21.30;11.63;;;3.90;99.90;;;;;;5035580;28;20016;-57
2022/03/02 07:27:26;;;;;;;21.30;11.82;;;4.10;99.90;;;;;;5027642;28;20497;-56
2022/03/02 07:29:54;;;;;;;20.30;10.93;;;4.30;99.90;;;;;;5036732;28;20037;-57
2022/03/02 07:32:31;;;;;;;21.25;11.32;;;4.50;99.90;;;;;;5039697;28;20035;-57
2022/03/02 07:34:58;;;;;;;21.02;10.15;;;4.70;99.90;;;;;;5037660;28;20029;-57
2022/03/02 07:37:26;;;;;;;17.58;10.18;;;4.80;99.90;;;;;;5035034;28;20678;-57
2022/03/02 07:39:52;;;;;;;18.63;10.55;;;4.80;99.90;;;;;;5032010;28;20033;-57
2022/03/02 07:42:19;;;;;;;16.08;10.68;;;4.90;99.90;;;;;;5029096;28;20481;-57
2022/03/02 07:44:49;;;;;;;20.27;10.38;;;5.00;99.90;;;;;;5036803;28;20086;-57
2022/03/02 07:47:16;;;;;;;24.73;10.73;;;5.10;99.90;;;;;;5032597;28;20029;-57
2022/03/02 07:49:42;;;;;;;17.70;9.70;;;5.10;99.90;;;;;;5038077;28;20076;-58
2022/03/02 07:52:10;;;;;;;15.80;10.23;;;5.20;99.90;;;;;;5038026;28;20036;-57
2022/03/02 07:54:38;;;;;;;20.67;10.02;;;5.10;99.90;;;;;;5035295;28;20118;-58
2022/03/02 07:57:06;;;;;;;24.38;10.77;;;5.10;99.90;;;;;;5034139;28;20120;-58
2022/03/02 07:59:36;;;;;;;21.05;11.02;;;5.10;99.90;;;;;;5037100;28;20438;-57
2022/03/02 08:02:03;;;;;;;20.92;11.32;;;5.10;99.90;;;;;;5039738;28;20077;-57
2022/03/02 08:04:31;;;;;;;19.42;11.38;;;5.20;99.90;;;;;;5042177;28;20057;-57
2022/03/02 08:06:56;;;;;;;24.80;11.00;;;5.20;99.90;;;;;;5045361;28;20325;-58
2022/03/02 08:09:22;;;;;;;20.90;11.35;;;5.40;99.90;;;;;;5040362;28;20095;-57
2022/03/02 08:11:47;;;;;;;15.77;9.40;;;5.50;99.90;;;;;;5053182;28;20028;-57
2022/03/02 08:14:13;;;;;;;17.80;9.88;;;5.70;99.90;;;;;;5035094;28;20357;-58
2022/03/02 08:16:40;;;;;;;15.43;9.48;;;5.80;99.90;;;;;;5034812;28;20030;-57
2022/03/02 08:19:07;;;;;;;16.00;8.95;;;5.80;99.90;;;;;;5031275;28;20452;-57
2022/03/02 08:21:35;;;;;;;18.10;9.30;;;5.90;99.90;;;;;;5043596;28;20025;-57
2022/03/02 08:24:06;;;;;;;16.58;9.85;;;5.90;99.90;;;;;;5032597;28;20135;-57
2022/03/02 08:26:33;;;;;;;15.77;9.50;;;6.00;99.90;;;;;;5035892;28;20584;-57
2022/03/02 08:29:05;;;;;;;16.75;10.10;;;6.10;99.90;;;;;;5041452;28;20037;-57
2022/03/02 08:31:32;;;;;;;16.33;10.30;;;6.10;99.90;;;;;;5032925;28;20441;-57
2022/03/02 08:33:59;;;;;;;22.15;13.43;;;6.30;99.90;;;;;;5037894;28;20773;-58
2022/03/02 08:36:33;;;;;;;17.60;9.85;;;6.30;99.90;;;;;;5043790;28;20017;-57
2022/03/02 08:39:00;;;;;;;18.08;10.55;;;6.30;99.90;;;;;;5037550;28;20032;-57
2022/03/02 08:41:26;;;;;;;16.90;10.05;;;6.30;99.90;;;;;;5040030;28;20236;-56
2022/03/02 08:43:51;;;;;;;15.48;9.15;;;6.30;99.90;;;;;;5045835;28;20503;-58
2022/03/02 08:46:17;;;;;;;16.30;10.25;;;6.40;99.90;;;;;;5037981;28;20029;-57
2022/03/02 08:48:43;;;;;;;16.77;9.85;;;6.40;99.90;;;;;;5036166;28;20033;-56
2022/03/02 08:51:08;;;;;;;16.13;9.90;;;6.50;99.90;;;;;;5036418;28;20029;-57
2022/03/02 08:53:37;;;;;;;18.80;10.15;;;6.70;99.90;;;;;;5043038;28;20119;-57
2022/03/02 08:56:04;;;;;;;21.25;9.95;;;6.60;99.90;;;;;;5036605;28;20029;-57
2022/03/02 08:58:31;;;;;;;15.45;9.45;;;6.70;99.90;;;;;;5043559;28;20024;-57
2022/03/02 09:01:00;;;;;;;16.20;10.73;;;6.70;99.90;;;;;;5043848;28;20500;-57
2022/03/02 09:03:26;;;;;;;20.30;10.05;;;6.70;99.90;;;;;;5034472;28;20112;-58
2022/03/02 09:05:52;;;;;;;16.85;9.90;;;6.80;99.90;;;;;;5040735;28;20032;-57
2022/03/02 09:08:18;;;;;;;15.23;9.40;;;6.80;99.90;;;;;;5037724;28;20067;-56
2022/03/02 09:10:44;;;;;;;16.90;10.25;;;7.00;99.90;;;;;;5030953;28;20064;-58
2022/03/02 09:13:11;;;;;;;20.42;9.80;;;7.00;99.90;;;;;;5044452;28;20418;-56
2022/03/02 09:15:38;;;;;;;18.77;9.60;;;;;;;;;;5035447;28;20173;-57
2022/03/02 09:18:04;;;;;;;20.27;10.13;;;7.10;99.90;;;;;;5043972;28;20460;-57
2022/03/02 09:20:30;;;;;;;15.38;9.40;;;7.10;99.90;;;;;;5040292;28;20025;-57
2022/03/02 09:22:58;;;;;;;21.15;9.45;;;7.20;99.90;;;;;;5038213;28;20063;-57
2022/03/02 09:25:25;;;;;;;17.85;10.10;;;7.20;99.90;;;;;;5033932;28;20020;-56
2022/03/02 09:27:51;;;;;;;19.45;9.93;;;7.30;99.90;;;;;;5035960;28;20033;-56
2022/03/02 09:30:17;;;;;;;15.35;9.32;;;7.40;99.90;;;;;;5036656;28;20039;-57
2022/03/02 09:32:43;;;;;;;35.85;23.60;;;7.40;99.90;;;;;;5028451;28;20029;-57
2022/03/02 09:35:15;;;;;;;152.93;79.63;;;7.30;99.90;;;;;;5038465;28;20029;-57
2022/03/02 09:37:48;;;;;;;21.83;14.47;;;7.30;99.90;;;;;;5030341;28;20037;-57
2022/03/02 09:40:29;;;;;;;15.93;9.50;;;7.30;99.90;;;;;;5033992;28;20040;-56
2022/03/02 09:42:57;;;;;;;14.73;8.98;;;7.40;99.90;;;;;;5032243;28;20029;-57
2022/03/02 09:45:26;;;;;;;15.38;9.27;;;7.50;99.90;;;;;;5035033;28;20066;-56
2022/03/02 09:47:57;;;;;;;14.30;9.18;;;7.50;99.90;;;;;;5037999;28;20037;-57
2022/03/02 09:50:25;;;;;;;14.88;9.25;;;7.50;99.90;;;;;;5033714;28;20516;-56
2022/03/02 09:52:53;;;;;;;15.05;9.38;;;7.60;99.90;;;;;;5034552;28;20450;-56
2022/03/02 09:55:24;;;;;;;14.73;9.40;;;7.60;99.90;;;;;;5035654;28;20032;-57
2022/03/02 09:57:53;;;;;;;17.17;9.15;;;7.70;99.90;;;;;;5032302;28;20625;-56
2022/03/02 10:00:21;;;;;;;16.85;8.90;;;7.80;99.90;;;;;;5037810;28;20114;-57
2022/03/02 10:02:50;;;;;;;13.25;8.27;;;7.90;99.90;;;;;;5031735;28;20047;-57
2022/03/02 10:05:20;;;;;;;14.57;8.93;;;7.80;99.90;;;;;;5032121;28;20043;-56
2022/03/02 10:07:57;;;;;;;17.17;9.68;;;7.90;99.90;;;;;;5034437;28;20053;-57
2022/03/02 10:10:24;;;;;;;18.02;9.90;;;7.90;99.90;;;;;;5030061;28;20029;-58
2022/03/02 10:12:51;;;;;;;17.15;10.20;;;8.00;99.90;;;;;;5034520;28;20057;-58
2022/03/02 10:15:18;;;;;;;14.55;10.05;;;8.00;99.90;;;;;;5034471;28;20021;-57
2022/03/02 10:17:47;;;;;;;19.23;10.30;;;8.10;99.90;;;;;;5035949;28;20061;-57
2022/03/02 10:20:34;;;;;;;14.88;9.73;;;8.10;99.90;;;;;;5034806;28;20067;-57
2022/03/02 10:23:32;;;;;;;14.85;9.20;;;8.10;99.90;;;;;;5026848;28;20112;-57
2022/03/02 10:26:06;;;;;;;19.80;9.35;;;8.20;99.90;;;;;;5028241;28;20045;-56
2022/03/02 10:29:03;;;;;;;15.77;9.88;;;8.30;99.90;;;;;;5033874;28;20033;-58
2022/03/02 10:31:52;;;;;;;15.80;9.77;;;8.20;99.90;;;;;;5032712;28;20745;-57
2022/03/02 10:34:36;;;;;;;17.38;10.18;;;8.20;99.90;;;;;;5033179;28;20020;-57
2022/03/02 10:37:11;;;;;;;16.77;8.85;;;8.20;99.90;;;;;;5032661;28;20583;-57
2022/03/02 10:40:12;;;;;;;16.05;9.52;;;8.40;99.90;;;;;;5044103;28;20033;-57
2022/03/02 10:42:43;;;;;;;18.17;9.70;;;8.40;99.90;;;;;;5030030;28;20024;-58
2022/03/02 10:45:15;;;;;;;16.38;9.85;;;8.40;99.90;;;;;;5038582;28;20036;-58
2022/03/02 10:48:09;;;;;;;16.27;8.48;;;8.40;99.90;;;;;;5034845;28;20491;-56
2022/03/02 10:50:35;;;;;;;17.13;9.60;;;8.40;99.90;;;;;;5030816;28;20084;-57
2022/03/02 10:53:04;;;;;;;14.77;8.77;;;8.50;99.90;;;;;;5030787;28;20061;-58
2022/03/02 10:55:32;;;;;;;14.68;8.80;;;8.50;99.90;;;;;;5028438;28;20067;-58
2022/03/02 10:58:04;;;;;;;15.02;8.93;;;8.70;99.90;;;;;;5028095;28;20108;-58
2022/03/02 11:00:30;;;;;;;17.33;8.98;;;8.60;99.90;;;;;;5034606;28;20061;-58
2022/03/02 11:02:57;;;;;;;15.57;9.60;;;8.80;99.90;;;;;;5035752;28;20590;-58
2022/03/02 11:05:25;;;;;;;14.93;8.82;;;8.80;99.90;;;;;;5024616;28;20139;-57
2022/03/02 11:07:52;;;;;;;17.13;9.43;;;9.00;99.90;;;;;;5027134;28;20464;-56
2022/03/02 11:10:21;;;;;;;15.02;9.57;;;8.80;99.90;;;;;;5029519;28;20033;-57
2022/03/02 11:12:49;;;;;;;15.90;9.20;;;8.80;99.90;;;;;;5028450;28;20331;-57
2022/03/02 11:15:17;;;;;;;16.42;9.60;;;8.80;99.90;;;;;;5033661;28;20048;-57
2022/03/02 11:18:00;;;;;;;13.60;9.48;;;8.80;99.90;;;;;;5034031;28;20030;-57
2022/03/02 11:20:29;;;;;;;16.85;9.45;;;8.90;99.90;;;;;;5023534;28;20034;-57
2022/03/02 11:22:59;;;;;;;13.55;8.55;;;8.90;99.90;;;;;;5032786;28;20033;-57
2022/03/02 11:26:05;;;;;;;51.20;32.83;;;8.90;99.90;;;;;;5028996;28;20029;-58
2022/03/02 11:28:30;;;;;;;15.50;10.05;;;8.90;99.90;;;;;;5014317;28;20039;-58
2022/03/02 11:31:04;;;;;;;16.30;9.32;;;9.00;99.90;;;;;;5026998;28;20060;-57
2022/03/02 11:33:30;;;;;;;13.25;8.57;;;9.10;99.90;;;;;;5032198;28;20493;-58
2022/03/02 11:36:02;;;;;;;13.80;9.48;;;9.10;99.90;;;;;;5028151;28;20029;-57
2022/03/02 11:38:30;;;;;;;14.48;9.30;;;9.20;99.90;;;;;;5032931;28;20083;-57
2022/03/02 11:40:56;;;;;;;16.05;9.02;;;9.20;99.90;;;;;;5036596;28;20025;-57
2022/03/02 11:43:26;;;;;;;16.92;8.95;;;9.20;99.90;;;;;;5024913;28;20087;-58
2022/03/02 11:45:57;;;;;;;14.38;8.75;;;9.30;99.90;;;;;;5034679;28;20393;-57
2022/03/02 11:48:28;;;;;;;12.95;9.07;;;9.30;99.90;;;;;;5027717;28;20393;-58
2022/03/02 11:51:14;;;;;;;13.32;8.93;;;9.50;99.90;;;;;;5034596;28;20150;-57
2022/03/02 11:53:44;;;;;;;14.38;8.52;;;9.40;99.90;;;;;;5036329;28;20033;-57
2022/03/02 11:56:16;;;;;;;14.70;8.90;;;9.40;99.90;;;;;;5032215;28;20033;-57
2022/03/02 11:58:55;;;;;;;12.75;8.35;;;9.40;99.90;;;;;;5032678;28;20044;-57
2022/03/02 12:01:22;;;;;;;13.20;8.48;;;9.50;99.90;;;;;;5033540;28;20036;-57
2022/03/02 12:03:58;;;;;;;12.48;7.78;;;9.50;99.90;;;;;;5032118;28;20040;-57
2022/03/02 12:06:29;;;;;;;10.43;7.47;;;9.50;99.90;;;;;;5029369;28;20025;-57
2022/03/02 12:08:57;;;;;;;13.60;7.20;;;9.60;99.90;;;;;;5034575;28;20505;-58
2022/03/02 12:11:26;;;;;;;13.27;7.63;;;9.60;99.90;;;;;;5029821;28;20069;-57
2022/03/02 12:14:04;;;;;;;13.25;7.22;;;9.90;99.90;;;;;;5033654;28;20800;-56
2022/03/02 12:16:38;;;;;;;13.65;6.93;;;9.60;99.90;;;;;;5037074;28;20339;-57
2022/03/02 12:19:05;;;;;;;10.55;7.35;;;9.70;99.90;;;;;;5037275;28;20306;-58
2022/03/02 12:21:30;;;;;;;14.80;7.30;;;9.70;99.90;;;;;;5029028;28;20025;-57
2022/03/02 12:23:59;;;;;;;13.73;7.05;;;9.70;99.90;;;;;;5033549;28;20394;-57
2022/03/02 12:26:24;;;;;;;10.95;7.32;;;9.70;99.90;;;;;;5032386;28;20544;-57
2022/03/02 12:28:55;;;;;;;10.77;7.15;;;9.70;99.90;;;;;;5032965;28;20029;-58
2022/03/02 12:31:32;;;;;;;14.23;7.25;;;9.70;99.90;;;;;;5039888;28;20649;-58
2022/03/02 12:34:16;;;;;;;11.43;7.20;;;9.80;99.90;;;;;;5035353;28;20571;-59
2022/03/02 12:36:43;;;;;;;11.30;7.28;;;9.80;99.90;;;;;;5036799;28;20064;-57
2022/03/02 12:39:10;;;;;;;15.15;7.55;;;9.70;99.90;;;;;;5035990;28;20039;-57
2022/03/02 12:41:37;;;;;;;12.15;7.32;;;9.70;99.90;;;;;;5032612;28;20040;-58
2022/03/02 12:44:03;;;;;;;13.30;7.78;;;9.90;99.90;;;;;;5032930;28;20047;-57
2022/03/02 12:46:31;;;;;;;11.27;7.93;;;10.00;99.90;;;;;;5031979;28;20060;-58
2022/03/02 12:48:58;;;;;;;10.27;6.55;;;9.90;99.90;;;;;;5035570;28;20025;-57
2022/03/02 12:51:28;;;;;;;9.57;7.13;;;9.90;99.90;;;;;;5041597;28;20139;-58
2022/03/02 12:53:54;;;;;;;10.80;7.07;;;9.90;99.90;;;;;;5034599;28;20074;-58
2022/03/02 12:56:19;;;;;;;10.38;6.93;;;9.90;99.90;;;;;;5036232;28;20041;-58
2022/03/02 12:58:45;;;;;;;10.70;7.07;;;9.90;99.90;;;;;;5033517;28;20029;-59
2022/03/02 13:01:11;;;;;;;176.75;108.05;;;9.90;99.90;;;;;;5029180;28;20052;-59
2022/03/02 13:03:44;;;;;;;11.70;7.72;;;9.90;99.90;;;;;;5029033;28;20025;-58
2022/03/02 13:06:16;;;;;;;9.15;6.95;;;10.10;99.90;;;;;;5027364;28;20083;-58
2022/03/02 13:08:53;;;;;;;11.82;6.88;;;10.40;99.90;;;;;;5034792;28;20153;-59
2022/03/02 13:11:31;;;;;;;10.13;6.57;;;10.30;99.90;;;;;;5032929;28;20072;-57
2022/03/02 13:13:57;;;;;;;10.40;7.05;;;10.40;99.90;;;;;;5033147;28;20603;-59